Time;durP1;ratioP1;P1;durP2;ratioP2;P2;SDS_P1;SDS_P2;PMS_P1;PMS_P2;Temp;Humidity;BMP_temperature;BMP_pressure;BME280_temperature;BME280_humidity;BME280_pressure;Samples;Min_cycle;Max_cycle;Signal;HPM_P1;HPM_P2
2024/03/30 00:00:03;;;;;;;6.27;5.77;;;;;;;;;;5091082;28;20453;-68
2024/03/30 00:02:31;;;;;;;8.57;7.00;;;;;;;;;;5084478;28;20449;-68
2024/03/30 00:04:58;;;;;;;7.87;7.17;;;;;;;;;;5090993;28;21057;-68
2024/03/30 00:07:25;;;;;;;8.50;7.70;;;;;;;;;;5088211;28;20443;-68
2024/03/30 00:09:51;;;;;;;6.63;6.13;;;;;;;;;;5083540;28;20477;-68
2024/03/30 00:12:19;;;;;;;7.87;7.20;;;;;;;;;;5093145;28;20499;-68
2024/03/30 00:14:45;;;;;;;7.57;6.93;;;;;;;;;;5082365;28;20870;-68
2024/03/30 00:17:12;;;;;;;10.32;7.43;;;;;;;;;;5085726;28;20441;-68
2024/03/30 00:19:39;;;;;;;7.87;7.00;;;;;;;;;;5092002;28;20674;-68
2024/03/30 00:22:07;;;;;;;7.53;6.50;;;;;;;;;;5075051;28;20925;-68
2024/03/30 00:24:34;;;;;;;13.48;8.60;;;;;;;;;;5094842;28;20231;-68
2024/03/30 00:27:01;;;;;;;8.83;6.47;;;;;;;;;;5087765;28;20222;-68
2024/03/30 00:29:27;;;;;;;8.67;7.80;;;;;;;;;;5081972;28;20443;-68
2024/03/30 00:31:54;;;;;;;8.90;8.10;;;;;;;;;;5076672;28;20451;-68
2024/03/30 00:34:20;;;;;;;8.00;7.13;;;;;;;;;;5093186;28;21042;-68
2024/03/30 00:36:47;;;;;;;9.90;7.17;;;;;;;;;;5091002;28;20449;-68
2024/03/30 00:39:15;;;;;;;9.07;8.07;;;;;;;;;;5090804;28;20524;-68
2024/03/30 00:41:42;;;;;;;7.43;6.85;;;;;;;;;;5092933;28;20456;-68
2024/03/30 00:44:08;;;;;;;8.23;7.03;;;;;;;;;;5092894;28;20317;-68
2024/03/30 00:46:35;;;;;;;10.70;8.90;;;;;;;;;;5087962;28;20442;-68
2024/03/30 00:49:01;;;;;;;7.40;6.80;;;;;;;;;;5078394;28;20527;-68
2024/03/30 00:51:30;;;;;;;9.20;8.38;;;;;;;;;;5080827;28;20441;-68
2024/03/30 00:53:56;;;;;;;9.07;8.17;;;;;;;;;;5083740;28;20203;-68
2024/03/30 00:56:29;;;;;;;8.90;7.60;;;;;;;;;;5076800;28;20455;-68
2024/03/30 00:58:55;;;;;;;10.60;6.97;;;;;;;;;;5095021;28;20454;-68
2024/03/30 01:01:23;;;;;;;8.33;7.57;;;;;;;;;;5084270;28;20536;-68
2024/03/30 01:03:49;;;;;;;8.73;7.83;;;;;;;;;;5086561;28;20449;-68
2024/03/30 01:06:16;;;;;;;7.70;7.00;;;;;;;;;;5086365;28;20531;-68
2024/03/30 01:08:42;;;;;;;7.13;6.43;;;;;;;;;;5091723;28;20813;-68
2024/03/30 01:11:10;;;;;;;6.87;6.27;;;;;;;;;;5081937;28;20477;-68
2024/03/30 01:13:38;;;;;;;8.02;7.35;;;;;;;;;;5079242;28;20454;-68
2024/03/30 01:16:10;;;;;;;6.70;6.20;;;;;;;;;;5082353;28;20293;-68
2024/03/30 01:18:37;;;;;;;7.23;6.63;;;;;;;;;;5093700;28;20532;-68
2024/03/30 01:21:04;;;;;;;7.63;6.93;;;;;;;;;;5094332;28;20443;-67
2024/03/30 01:23:31;;;;;;;6.97;6.47;;;;;;;;;;5086699;28;20445;-68
2024/03/30 01:25:58;;;;;;;6.37;5.87;;;;;;;;;;5095078;28;20459;-68
2024/03/30 01:28:25;;;;;;;7.37;6.77;;;;;;;;;;5086545;28;20441;-68
2024/03/30 01:30:54;;;;;;;6.80;6.22;;;;;;;;;;5095590;28;20817;-68
2024/03/30 01:33:20;;;;;;;6.80;5.93;;;;;;;;;;5091935;28;20203;-68
2024/03/30 01:35:48;;;;;;;7.70;6.97;;;;;;;;;;5085417;28;20486;-68
2024/03/30 01:38:14;;;;;;;6.55;5.97;;;;;;;;;;5092286;28;20208;-68
2024/03/30 01:40:41;;;;;;;6.82;6.20;;;;;;;;;;5096813;28;20845;-68
2024/03/30 01:43:08;;;;;;;7.07;6.47;;;;;;;;;;5081272;28;20203;-68
2024/03/30 01:45:35;;;;;;;6.40;5.80;;;;;;;;;;5089206;28;20217;-68
2024/03/30 01:48:04;;;;;;;7.45;6.75;;;;;;;;;;5078971;28;20211;-68
2024/03/30 01:50:32;;;;;;;9.60;6.25;;;;;;;;;;5095195;28;20209;-68
2024/03/30 01:52:59;;;;;;;7.13;6.53;;;;;;;;;;5094858;28;20696;-68
2024/03/30 01:55:27;;;;;;;6.47;6.00;;;;;;;;;;5103257;28;20604;-68
2024/03/30 01:57:53;;;;;;;6.28;5.78;;;;;;;;;;5093285;28;20209;-68
2024/03/30 02:00:21;;;;;;;6.35;5.85;;;;;;;;;;5093065;28;20205;-68
2024/03/30 02:02:48;;;;;;;7.30;6.60;;;;;;;;;;5092933;28;20759;-68
2024/03/30 02:05:17;;;;;;;6.47;5.97;;;;;;;;;;5093004;28;20218;-68
2024/03/30 02:07:46;;;;;;;6.30;5.40;;;;;;;;;;5095462;28;20922;-68
2024/03/30 02:10:13;;;;;;;6.53;6.00;;;;;;;;;;5093133;28;20521;-68
2024/03/30 02:12:40;;;;;;;6.78;6.15;;;;;;;;;;5092514;28;20207;-68
2024/03/30 02:15:07;;;;;;;6.65;6.05;;;;;;;;;;5093117;28;20230;-68
2024/03/30 02:17:33;;;;;;;6.18;5.57;;;;;;;;;;5092594;28;20206;-68
2024/03/30 02:20:00;;;;;;;9.35;8.45;;;;;;;;;;5092967;28;20193;-68
2024/03/30 02:22:28;;;;;;;6.38;5.72;;;;;;;;;;5092552;28;20223;-68
2024/03/30 02:24:56;;;;;;;7.13;6.47;;;;;;;;;;5092550;28;20315;-68
2024/03/30 02:27:22;;;;;;;7.50;6.68;;;;;;;;;;5090016;28;20240;-68
2024/03/30 02:29:51;;;;;;;6.72;6.05;;;;;;;;;;5089034;28;20678;-68
2024/03/30 02:32:17;;;;;;;6.38;5.78;;;;;;;;;;5092451;28;20581;-68
2024/03/30 02:34:44;;;;;;;6.53;5.53;;;;;;;;;;5092491;28;20653;-68
2024/03/30 02:37:11;;;;;;;6.90;6.32;;;;;;;;;;5092927;28;20288;-68
2024/03/30 02:39:38;;;;;;;6.95;6.22;;;;;;;;;;5092941;28;20197;-68
2024/03/30 02:42:06;;;;;;;6.68;6.07;;;;;;;;;;5092346;28;20200;-68
2024/03/30 02:44:33;;;;;;;6.80;6.22;;;;;;;;;;5088583;28;20723;-68
2024/03/30 02:46:59;;;;;;;6.88;6.22;;;;;;;;;;5091077;28;20209;-68
2024/03/30 02:49:26;;;;;;;6.90;5.35;;;;;;;;;;5091795;28;20233;-68
2024/03/30 02:51:52;;;;;;;6.57;5.95;;;;;;;;;;5091547;28;20205;-68
2024/03/30 02:54:19;;;;;;;7.45;6.53;;;;;;;;;;5092619;28;20314;-68
2024/03/30 02:56:45;;;;;;;6.50;5.90;;;;;;;;;;5092909;28;20204;-68
2024/03/30 02:59:14;;;;;;;6.55;5.95;;;;;;;;;;5092668;28;20247;-68
2024/03/30 03:01:40;;;;;;;5.40;4.95;;;;;;;;;;5092281;28;20291;-68
2024/03/30 03:04:07;;;;;;;6.95;6.35;;;;;;;;;;5092452;28;20197;-68
2024/03/30 03:06:33;;;;;;;6.35;5.85;;;;;;;;;;5092848;28;20202;-68
2024/03/30 03:09:00;;;;;;;7.10;6.10;;;;;;;;;;5092657;28;20206;-68
2024/03/30 03:11:27;;;;;;;6.80;6.22;;;;;;;;;;5092165;28;20212;-68
2024/03/30 03:13:54;;;;;;;5.97;5.38;;;;;;;;;;5092371;28;20205;-68
2024/03/30 03:16:21;;;;;;;6.20;5.70;;;;;;;;;;5092143;28;20250;-68
2024/03/30 03:18:48;;;;;;;6.80;6.20;;;;;;;;;;5092372;28;20210;-68
2024/03/30 03:21:15;;;;;;;6.72;5.47;;;;;;;;;;5092190;28;20201;-68
2024/03/30 03:23:43;;;;;;;6.10;5.65;;;;;;;;;;5092093;28;20201;-68
2024/03/30 03:26:09;;;;;;;6.10;5.60;;;;;;;;;;5092006;28;20222;-68
2024/03/30 03:28:36;;;;;;;6.70;5.90;;;;;;;;;;5092112;28;20201;-68
2024/03/30 03:31:02;;;;;;;5.50;4.97;;;;;;;;;;5091695;28;20287;-68
2024/03/30 03:33:30;;;;;;;6.72;6.13;;;;;;;;;;5092214;28;20205;-68
2024/03/30 03:35:57;;;;;;;6.20;5.70;;;;;;;;;;5091968;28;20252;-69
2024/03/30 03:38:24;;;;;;;11.27;5.80;;;;;;;;;;5091799;28;20236;-68
2024/03/30 03:40:50;;;;;;;7.88;5.65;;;;;;;;;;5091711;28;20213;-68
2024/03/30 03:43:17;;;;;;;7.68;5.13;;;;;;;;;;5091710;28;20194;-68
2024/03/30 03:45:46;;;;;;;6.00;5.50;;;;;;;;;;5091704;28;20220;-68
2024/03/30 03:48:14;;;;;;;5.88;5.38;;;;;;;;;;5092028;28;20593;-68
2024/03/30 03:50:41;;;;;;;5.32;4.90;;;;;;;;;;5091690;28;20207;-68
2024/03/30 03:53:08;;;;;;;7.10;5.50;;;;;;;;;;5091188;28;20212;-68
2024/03/30 03:55:35;;;;;;;5.65;4.80;;;;;;;;;;5090949;28;20265;-68
2024/03/30 03:58:02;;;;;;;5.82;4.65;;;;;;;;;;5091530;28;20232;-68
2024/03/30 04:00:28;;;;;;;5.82;5.32;;;;;;;;;;5091817;28;20292;-68
2024/03/30 04:02:55;;;;;;;4.50;4.20;;;;;;;;;;5091480;28;20233;-68
2024/03/30 04:05:22;;;;;;;6.40;5.38;;;;;;;;;;5090205;28;20221;-68
2024/03/30 04:07:50;;;;;;;9.25;5.65;;;;;;;;;;5091119;28;20203;-68
2024/03/30 04:10:17;;;;;;;5.70;4.95;;;;;;;;;;5091528;28;20294;-68
2024/03/30 04:12:44;;;;;;;4.20;3.80;;;;;;;;;;5091107;28;20209;-68
2024/03/30 04:15:10;;;;;;;4.57;4.15;;;;;;;;;;5091174;28;20239;-68
2024/03/30 04:17:37;;;;;;;4.57;4.18;;;;;;;;;;5090977;28;20678;-68
2024/03/30 04:20:05;;;;;;;5.20;4.80;;;;;;;;;;5091194;28;20300;-68
2024/03/30 04:22:32;;;;;;;4.55;4.22;;;;;;;;;;5090798;28;20204;-68
2024/03/30 04:25:00;;;;;;;4.47;4.15;;;;;;;;;;5091031;28;20293;-68
2024/03/30 04:27:27;;;;;;;4.72;4.32;;;;;;;;;;5091149;28;20210;-68
2024/03/30 04:29:53;;;;;;;4.90;4.35;;;;;;;;;;5091138;28;20210;-68
2024/03/30 04:32:20;;;;;;;4.90;4.60;;;;;;;;;;5090824;28;20341;-68
2024/03/30 04:34:46;;;;;;;4.90;4.50;;;;;;;;;;5090753;28;20685;-68
2024/03/30 04:37:13;;;;;;;5.18;4.68;;;;;;;;;;5091174;28;20278;-68
2024/03/30 04:39:41;;;;;;;4.30;3.90;;;;;;;;;;5090814;28;20708;-68
2024/03/30 04:42:10;;;;;;;4.60;4.25;;;;;;;;;;5090859;28;20215;-69
2024/03/30 04:44:36;;;;;;;4.80;4.40;;;;;;;;;;5090881;28;20225;-68
2024/03/30 04:47:03;;;;;;;5.82;4.22;;;;;;;;;;5090823;28;20208;-68
2024/03/30 04:49:30;;;;;;;4.50;4.20;;;;;;;;;;5090455;28;20216;-69
2024/03/30 04:51:57;;;;;;;4.05;3.65;;;;;;;;;;5090622;28;20206;-68
2024/03/30 04:54:23;;;;;;;4.05;3.75;;;;;;;;;;5090807;28;20234;-68
2024/03/30 04:56:50;;;;;;;6.40;5.78;;;;;;;;;;5090830;28;20217;-68
2024/03/30 04:59:17;;;;;;;10.45;4.40;;;;;;;;;;5090901;28;20208;-68
2024/03/30 05:01:45;;;;;;;4.82;4.40;;;;;;;;;;5090406;28;20212;-68
2024/03/30 05:04:12;;;;;;;4.90;4.25;;;;;;;;;;5090813;28;20344;-68
2024/03/30 05:06:38;;;;;;;4.53;4.03;;;;;;;;;;5090631;28;20762;-68
2024/03/30 05:09:05;;;;;;;6.05;4.03;;;;;;;;;;5090554;28;20670;-68
2024/03/30 05:11:31;;;;;;;4.13;3.83;;;;;;;;;;5090425;28;20299;-68
2024/03/30 05:13:58;;;;;;;3.97;3.67;;;;;;;;;;5090532;28;20201;-69
2024/03/30 05:16:26;;;;;;;4.20;3.80;;;;;;;;;;5090181;28;20224;-68
2024/03/30 05:18:53;;;;;;;5.50;4.60;;;;;;;;;;5090762;28;20208;-68
2024/03/30 05:21:20;;;;;;;6.85;4.75;;;;;;;;;;5090401;28;20222;-69
2024/03/30 05:23:49;;;;;;;4.20;3.90;;;;;;;;;;5090450;28;20209;-68
2024/03/30 05:26:15;;;;;;;6.45;4.63;;;;;;;;;;5090471;28;20567;-68
2024/03/30 05:28:43;;;;;;;5.15;4.53;;;;;;;;;;5090358;28;20583;-68
2024/03/30 05:31:19;;;;;;;5.03;3.95;;;;;;;;;;5090333;28;20206;-68
2024/03/30 05:33:48;;;;;;;4.93;4.43;;;;;;;;;;5090395;28;20200;-68
2024/03/30 05:36:15;;;;;;;4.68;4.07;;;;;;;;;;5090320;28;20236;-69
2024/03/30 05:38:41;;;;;;;5.45;4.50;;;;;;;;;;5090211;28;20240;-68
2024/03/30 05:41:08;;;;;;;5.50;5.00;;;;;;;;;;5089925;28;20208;-68
2024/03/30 05:43:34;;;;;;;9.00;3.97;;;;;;;;;;5090285;28;20243;-68
2024/03/30 05:46:01;;;;;;;4.00;3.70;;;;;;;;;;5090287;28;20217;-68
2024/03/30 05:48:28;;;;;;;8.45;4.68;;;;;;;;;;5090353;28;20645;-69
2024/03/30 05:50:56;;;;;;;3.78;3.50;;;;;;;;;;5090148;28;20555;-68
2024/03/30 05:53:22;;;;;;;4.70;4.30;;;;;;;;;;5090226;28;20697;-68
2024/03/30 05:55:51;;;;;;;10.13;5.30;;;;;;;;;;5090136;28;20231;-68
2024/03/30 05:58:17;;;;;;;9.60;4.40;;;;;;;;;;5090539;28;20210;-68
2024/03/30 06:00:44;;;;;;;13.30;5.90;;;;;;;;;;5090227;28;20205;-68
2024/03/30 06:03:10;;;;;;;14.98;5.88;;;;;;;;;;5093047;28;20227;-68
2024/03/30 06:05:37;;;;;;;7.63;6.63;;;;;;;;;;5093677;28;20309;-69
2024/03/30 06:08:05;;;;;;;7.60;4.90;;;;;;;;;;5093574;28;20308;-68
2024/03/30 06:10:33;;;;;;;5.80;5.20;;;;;;;;;;5093855;28;20201;-68
2024/03/30 06:12:59;;;;;;;4.93;4.40;;;;;;;;;;5093570;28;20211;-68
2024/03/30 06:15:26;;;;;;;6.00;5.45;;;;;;;;;;5093557;28;20316;-68
2024/03/30 06:17:52;;;;;;;4.70;4.40;;;;;;;;;;5093290;28;20721;-68
2024/03/30 06:20:19;;;;;;;5.68;4.55;;;;;;;;;;5093893;28;20632;-68
2024/03/30 06:22:45;;;;;;;5.60;5.10;;;;;;;;;;5093285;28;20208;-68
2024/03/30 06:25:14;;;;;;;6.35;5.75;;;;;;;;;;5093247;28;20233;-68
2024/03/30 06:27:40;;;;;;;5.95;5.40;;;;;;;;;;5093496;28;20295;-68
2024/03/30 06:30:08;;;;;;;5.43;4.93;;;;;;;;;;5093354;28;20251;-68
2024/03/30 06:32:34;;;;;;;9.75;6.53;;;;;;;;;;5092939;28;20592;-68
2024/03/30 06:35:01;;;;;;;8.45;6.40;;;;;;;;;;5093304;28;20651;-68
2024/03/30 06:37:27;;;;;;;6.32;5.72;;;;;;;;;;5092962;28;20235;-68
2024/03/30 06:45:26;;;;;;;14.85;7.95;;;;;;;;;;5093009;28;20301;-68
2024/03/30 06:47:53;;;;;;;7.60;6.88;;;;;;;;;;5093119;28;20293;-68
2024/03/30 06:50:20;;;;;;;7.32;6.13;;;;;;;;;;5092951;28;20209;-68
2024/03/30 06:52:47;;;;;;;6.93;6.22;;;;;;;;;;5092694;28;20207;-68
2024/03/30 06:55:13;;;;;;;8.07;5.60;;;;;;;;;;5092690;28;20225;-69
2024/03/30 06:57:42;;;;;;;8.00;6.90;;;;;;;;;;5092684;28;20213;-68
2024/03/30 07:00:10;;;;;;;8.90;6.20;;;;;;;;;;5092835;28;20469;-68
2024/03/30 07:02:36;;;;;;;7.97;6.07;;;;;;;;;;5092657;28;20242;-68
2024/03/30 07:05:03;;;;;;;7.23;6.63;;;;;;;;;;5092498;28;20476;-68
2024/03/30 07:07:29;;;;;;;6.63;6.03;;;;;;;;;;5092547;28;20469;-69
2024/03/30 07:09:56;;;;;;;6.00;5.40;;;;;;;;;;5092571;28;20455;-69
2024/03/30 07:12:22;;;;;;;6.17;5.63;;;;;;;;;;5091711;28;20453;-68
2024/03/30 07:14:51;;;;;;;6.33;5.37;;;;;;;;;;5092285;28;20460;-69
2024/03/30 07:17:17;;;;;;;6.37;5.70;;;;;;;;;;5092161;28;20486;-69
2024/03/30 07:19:44;;;;;;;7.03;6.43;;;;;;;;;;5092334;28;20454;-69
2024/03/30 07:22:10;;;;;;;6.70;5.97;;;;;;;;;;5091848;28;20549;-68
2024/03/30 07:24:37;;;;;;;7.40;6.80;;;;;;;;;;5092191;28;20638;-69
2024/03/30 07:27:04;;;;;;;5.77;5.27;;;;;;;;;;5092158;28;20467;-68
2024/03/30 07:29:33;;;;;;;5.07;4.67;;;;;;;;;;5092239;28;20484;-69
2024/03/30 07:32:01;;;;;;;7.80;5.50;;;;;;;;;;5091716;28;20460;-68
2024/03/30 07:34:28;;;;;;;6.73;5.60;;;;;;;;;;5091765;28;20478;-69
2024/03/30 07:36:54;;;;;;;8.50;4.80;;;;;;;;;;5091527;28;20585;-68
2024/03/30 07:39:21;;;;;;;16.23;5.73;;;;;;;;;;5092083;28;20445;-68
2024/03/30 07:41:47;;;;;;;6.07;5.40;;;;;;;;;;5091632;28;20446;-68
2024/03/30 07:44:17;;;;;;;6.20;5.10;;;;;;;;;;5091500;28;20470;-68
2024/03/30 07:46:43;;;;;;;12.13;7.07;;;;;;;;;;5092040;28;20827;-68
2024/03/30 07:49:12;;;;;;;17.43;7.20;;;;;;;;;;5091879;28;20442;-68
2024/03/30 07:51:38;;;;;;;7.80;5.20;;;;;;;;;;5091555;28;20830;-68
2024/03/30 07:54:05;;;;;;;7.60;6.33;;;;;;;;;;5089397;28;20941;-69
2024/03/30 07:56:31;;;;;;;8.90;5.80;;;;;;;;;;5090099;28;20929;-69
2024/03/30 07:59:01;;;;;;;11.67;6.37;;;;;;;;;;5090665;28;20474;-68
2024/03/30 08:01:29;;;;;;;10.20;6.70;;;;;;;;;;5085389;28;20541;-69
2024/03/30 08:03:56;;;;;;;16.00;6.00;;;;;;;;;;5081515;28;20459;-68
2024/03/30 08:06:23;;;;;;;9.70;6.30;;;;;;;;;;5087067;28;20517;-69
2024/03/30 08:08:51;;;;;;;10.00;6.20;;;;;;;;;;5086821;28;20552;-69
2024/03/30 08:11:17;;;;;;;12.43;6.50;;;;;;;;;;5083624;28;20474;-69
2024/03/30 08:13:44;;;;;;;20.20;6.27;;;;;;;;;;5088421;28;21011;-69
2024/03/30 08:16:10;;;;;;;11.03;5.67;;;;;;;;;;5089468;28;20523;-69
2024/03/30 08:18:37;;;;;;;10.83;5.50;;;;;;;;;;5093508;28;20449;-69
2024/03/30 08:21:05;;;;;;;17.23;6.10;;;;;;;;;;5091312;28;20538;-69
2024/03/30 08:23:32;;;;;;;13.87;6.30;;;;;;;;;;5089911;28;20466;-69
2024/03/30 08:26:00;;;;;;;17.00;5.03;;;;;;;;;;5079369;28;20551;-69
2024/03/30 08:28:26;;;;;;;9.23;6.03;;;;;;;;;;5088359;28;20447;-69
2024/03/30 08:30:53;;;;;;;23.67;8.00;;;;;;;;;;5088569;28;20475;-69
2024/03/30 08:33:19;;;;;;;20.60;8.20;;;;;;;;;;5088285;28;20447;-69
2024/03/30 08:35:52;;;;;;;9.60;5.30;;;;;;;;;;5087010;28;20501;-69
2024/03/30 08:38:19;;;;;;;9.27;6.10;;;;;;;;;;5090030;28;21121;-69
2024/03/30 08:40:48;;;;;;;18.27;6.63;;;;;;;;;;5089708;28;20455;-69
2024/03/30 08:43:14;;;;;;;18.20;5.93;;;;;;;;;;5090203;28;20828;-69
2024/03/30 08:45:41;;;;;;;14.33;5.60;;;;;;;;;;5092025;28;20911;-69
2024/03/30 08:48:08;;;;;;;18.23;7.20;;;;;;;;;;5086536;28;20458;-69
2024/03/30 08:50:35;;;;;;;15.40;7.50;;;;;;;;;;5085199;28;20482;-69
2024/03/30 08:53:01;;;;;;;16.20;8.67;;;;;;;;;;5090654;28;20868;-69
2024/03/30 08:55:28;;;;;;;12.70;7.40;;;;;;;;;;5096207;28;20476;-69
2024/03/30 08:57:56;;;;;;;16.43;6.93;;;;;;;;;;5087932;28;20485;-69
2024/03/30 09:00:23;;;;;;;17.97;7.23;;;;;;;;;;5096301;28;20450;-69
2024/03/30 09:02:51;;;;;;;13.47;6.57;;;;;;;;;;5090369;28;20438;-69
2024/03/30 09:05:18;;;;;;;21.37;8.97;;;;;;;;;;5097966;28;21208;-69
2024/03/30 09:07:44;;;;;;;18.03;8.00;;;;;;;;;;5089146;28;20439;-69
2024/03/30 09:10:12;;;;;;;21.33;8.63;;;;;;;;;;5081336;28;20523;-69
2024/03/30 09:12:38;;;;;;;22.73;7.43;;;;;;;;;;5090219;28;20927;-69
2024/03/30 09:15:07;;;;;;;19.43;9.50;;;;;;;;;;5091942;28;20998;-69
2024/03/30 09:17:33;;;;;;;15.77;6.57;;;;;;;;;;5082129;28;20572;-69
2024/03/30 09:20:01;;;;;;;23.43;8.83;;;;;;;;;;5090037;28;20453;-70
2024/03/30 09:22:28;;;;;;;30.57;9.90;;;;;;;;;;5090174;28;20953;-70
2024/03/30 09:24:57;;;;;;;33.10;11.43;;;;;;;;;;5090409;28;20480;-69
2024/03/30 09:27:23;;;;;;;25.17;9.37;;;;;;;;;;5085152;28;21015;-70
2024/03/30 09:29:51;;;;;;;25.87;9.43;;;;;;;;;;5090432;28;20443;-70
2024/03/30 09:32:18;;;;;;;25.80;9.67;;;;;;;;;;5089809;28;20818;-70
2024/03/30 09:34:45;;;;;;;23.93;7.60;;;;;;;;;;5090415;28;20476;-70
2024/03/30 09:37:13;;;;;;;30.13;10.10;;;;;;;;;;5093336;28;20489;-70
2024/03/30 09:39:40;;;;;;;22.53;7.60;;;;;;;;;;5094484;28;20457;-70
2024/03/30 09:42:08;;;;;;;25.80;9.93;;;;;;;;;;5094063;28;20451;-70
2024/03/30 09:44:35;;;;;;;28.37;9.87;;;;;;;;;;5093824;28;20469;-70
2024/03/30 09:47:02;;;;;;;24.20;9.00;;;;;;;;;;5093931;28;20520;-70
2024/03/30 09:49:33;;;;;;;18.80;8.90;;;;;;;;;;5093893;28;20535;-70
2024/03/30 09:52:00;;;;;;;30.33;9.97;;;;;;;;;;5093877;28;20528;-70
2024/03/30 09:54:28;;;;;;;28.67;9.43;;;;;;;;;;5093946;28;20491;-70
2024/03/30 09:56:54;;;;;;;32.30;10.93;;;;;;;;;;5093965;28;20576;-70
2024/03/30 09:59:21;;;;;;;29.43;8.73;;;;;;;;;;5093553;28;20821;-70
2024/03/30 10:01:48;;;;;;;31.60;9.50;;;;;;;;;;5093812;28;20455;-70
2024/03/30 10:04:15;;;;;;;29.67;11.43;;;;;;;;;;5091770;28;20994;-71
2024/03/30 10:06:44;;;;;;;34.73;9.90;;;;;;;;;;5092486;28;20446;-70
2024/03/30 10:09:14;;;;;;;29.80;10.80;;;;;;;;;;5093236;28;20540;-70
2024/03/30 10:11:41;;;;;;;38.27;10.67;;;;;;;;;;5089614;28;20807;-70
2024/03/30 10:14:17;;;;;;;34.37;10.97;;;;;;;;;;5092449;28;20438;-70
2024/03/30 10:16:44;;;;;;;37.60;13.10;;;;;;;;;;5092958;28;20573;-71
2024/03/30 10:19:12;;;;;;;31.43;10.30;;;;;;;;;;5093326;28;20535;-70
2024/03/30 10:21:38;;;;;;;29.93;11.53;;;;;;;;;;5093108;28;20450;-70
2024/03/30 10:24:07;;;;;;;38.27;11.63;;;;;;;;;;5093140;28;20453;-70
2024/03/30 10:26:36;;;;;;;29.87;10.50;;;;;;;;;;5086703;28;20803;-70
2024/03/30 10:29:03;;;;;;;39.23;10.83;;;;;;;;;;5093027;28;20447;-70
2024/03/30 10:31:30;;;;;;;35.90;12.07;;;;;;;;;;5092901;28;20522;-70
2024/03/30 10:33:57;;;;;;;33.97;11.20;;;;;;;;;;5112470;28;20506;-70
2024/03/30 10:36:23;;;;;;;30.07;10.47;;;;;;;;;;5092465;28;20577;-69
2024/03/30 10:38:50;;;;;;;35.60;11.60;;;;;;;;;;5089277;28;20507;-69
2024/03/30 10:41:18;;;;;;;33.40;10.70;;;;;;;;;;5091809;28;20439;-70
2024/03/30 10:43:45;;;;;;;33.30;10.73;;;;;;;;;;5092086;28;20453;-70
2024/03/30 10:46:12;;;;;;;32.50;12.33;;;;;;;;;;5089329;28;20458;-70
2024/03/30 10:48:40;;;;;;;34.13;10.50;;;;;;;;;;5091634;28;20827;-70
2024/03/30 10:51:06;;;;;;;37.20;13.30;;;;;;;;;;5092241;28;20447;-70
2024/03/30 10:53:34;;;;;;;40.07;13.00;;;;;;;;;;5088441;28;20459;-69
2024/03/30 10:56:00;;;;;;;42.90;12.93;;;;;;;;;;5088660;28;20546;-70
2024/03/30 10:58:29;;;;;;;32.50;11.50;;;;;;;;;;5092715;28;20446;-70
2024/03/30 11:00:57;;;;;;;37.93;11.63;;;;;;;;;;5091586;28;20444;-67
2024/03/30 11:03:24;;;;;;;36.10;11.87;;;;;;;;;;5096764;28;20956;-68
2024/03/30 11:05:52;;;;;;;36.40;11.40;;;;;;;;;;5095609;28;20457;-67
2024/03/30 11:08:20;;;;;;;40.13;12.30;;;;;;;;;;5105994;28;20530;-67
2024/03/30 11:10:46;;;;;;;36.60;11.90;;;;;;;;;;5087524;28;20444;-68
2024/03/30 11:13:13;;;;;;;36.80;12.17;;;;;;;;;;5101983;28;20533;-67
2024/03/30 11:15:42;;;;;;;39.10;13.37;;;;;;;;;;5101171;28;20461;-68
2024/03/30 11:18:12;;;;;;;37.27;14.33;;;;;;;;;;5093482;28;20568;-67
2024/03/30 11:20:41;;;;;;;33.43;10.73;;;;;;;;;;5091691;28;20445;-67
2024/03/30 11:23:09;;;;;;;35.53;13.57;;;;;;;;;;5099644;28;20457;-67
2024/03/30 11:25:37;;;;;;;39.67;12.60;;;;;;;;;;5097514;28;20475;-68
2024/03/30 11:28:06;;;;;;;34.83;12.50;;;;;;;;;;5095409;28;20439;-67
2024/03/30 11:30:36;;;;;;;39.63;12.70;;;;;;;;;;5100182;28;20446;-67
2024/03/30 11:33:09;;;;;;;29.00;14.93;;;;;;;;;;5095645;28;20452;-68
2024/03/30 11:35:38;;;;;;;35.67;11.30;;;;;;;;;;5095181;28;20490;-68
2024/03/30 11:38:07;;;;;;;44.90;14.97;;;;;;;;;;5098311;28;20482;-67
2024/03/30 11:40:34;;;;;;;51.43;13.93;;;;;;;;;;5097566;28;20443;-67
2024/03/30 11:43:07;;;;;;;41.90;14.60;;;;;;;;;;5094431;28;20996;-68
2024/03/30 11:45:35;;;;;;;48.63;16.43;;;;;;;;;;5092909;28;20459;-67
2024/03/30 11:48:03;;;;;;;35.57;12.80;;;;;;;;;;5098413;28;20451;-68
2024/03/30 11:50:31;;;;;;;49.30;13.47;;;;;;;;;;5091071;28;20535;-67
2024/03/30 11:52:58;;;;;;;40.70;13.93;;;;;;;;;;5092844;28;20464;-69
2024/03/30 11:55:25;;;;;;;45.33;13.77;;;;;;;;;;5101055;28;20473;-68
2024/03/30 11:57:55;;;;;;;35.00;13.03;;;;;;;;;;5098359;28;20487;-68
2024/03/30 12:00:24;;;;;;;44.27;15.30;;;;;;;;;;5092600;28;20971;-68
2024/03/30 12:02:51;;;;;;;38.97;12.10;;;;;;;;;;5102832;28;20457;-67
2024/03/30 12:05:19;;;;;;;43.07;12.40;;;;;;;;;;5099628;28;20555;-68
2024/03/30 12:07:47;;;;;;;29.63;12.00;;;;;;;;;;5098970;28;21083;-68
2024/03/30 12:10:14;;;;;;;40.27;13.10;;;;;;;;;;5097871;28;20534;-68
2024/03/30 12:12:42;;;;;;;31.57;13.50;;;;;;;;;;5100578;28;20439;-68
2024/03/30 12:15:11;;;;;;;47.80;12.50;;;;;;;;;;5095131;28;20985;-68
2024/03/30 12:17:39;;;;;;;36.53;14.27;;;;;;;;;;5093156;28;20541;-68
2024/03/30 12:20:06;;;;;;;39.53;13.53;;;;;;;;;;5090836;28;20544;-68
2024/03/30 12:22:33;;;;;;;34.03;14.97;;;;;;;;;;5089935;28;20443;-68
2024/03/30 12:25:01;;;;;;;40.30;14.20;;;;;;;;;;5089602;28;20554;-68
2024/03/30 12:27:28;;;;;;;40.60;12.50;;;;;;;;;;5092832;28;20862;-68
2024/03/30 12:29:55;;;;;;;36.50;13.43;;;;;;;;;;5105432;28;20454;-68
2024/03/30 12:32:22;;;;;;;48.07;15.90;;;;;;;;;;5099237;28;20523;-68
2024/03/30 12:34:49;;;;;;;38.00;12.90;;;;;;;;;;5092186;28;20545;-69
2024/03/30 12:37:16;;;;;;;41.97;13.23;;;;;;;;;;5093528;28;20514;-68
2024/03/30 12:39:42;;;;;;;36.63;12.10;;;;;;;;;;5095088;28;20540;-69
2024/03/30 12:42:12;;;;;;;42.57;16.67;;;;;;;;;;5106354;28;20540;-69
2024/03/30 12:44:38;;;;;;;43.73;17.40;;;;;;;;;;5099321;28;20474;-69
2024/03/30 12:47:05;;;;;;;48.27;15.13;;;;;;;;;;5096111;28;20469;-68
2024/03/30 12:49:34;;;;;;;43.90;14.30;;;;;;;;;;5096471;28;20509;-69
2024/03/30 12:52:02;;;;;;;44.17;14.23;;;;;;;;;;5095719;28;20442;-69
2024/03/30 12:54:28;;;;;;;51.13;14.90;;;;;;;;;;5094966;28;20509;-68
2024/03/30 12:56:55;;;;;;;36.70;13.77;;;;;;;;;;5094628;28;20510;-68
2024/03/30 12:59:23;;;;;;;46.67;16.43;;;;;;;;;;5096552;28;20526;-68
2024/03/30 13:01:50;;;;;;;40.13;14.90;;;;;;;;;;5092957;28;20442;-68
2024/03/30 13:04:16;;;;;;;49.10;14.10;;;;;;;;;;5095241;28;20546;-69
2024/03/30 13:06:44;;;;;;;42.37;16.27;;;;;;;;;;5094935;28;20457;-69
2024/03/30 13:09:18;;;;;;;51.33;14.63;;;;;;;;;;5094024;28;20449;-69
2024/03/30 13:11:46;;;;;;;40.77;13.07;;;;;;;;;;5096791;28;20446;-69
2024/03/30 13:14:12;;;;;;;43.30;13.73;;;;;;;;;;5109102;28;20525;-69
2024/03/30 13:16:40;;;;;;;42.63;14.50;;;;;;;;;;5099669;28;20452;-69
2024/03/30 13:19:10;;;;;;;40.97;15.13;;;;;;;;;;5095717;28;20525;-69
2024/03/30 13:21:39;;;;;;;47.47;14.30;;;;;;;;;;5096032;28;20446;-69
2024/03/30 13:24:05;;;;;;;44.10;15.10;;;;;;;;;;5099932;28;20470;-69
2024/03/30 13:26:32;;;;;;;53.63;14.60;;;;;;;;;;5096914;28;20508;-69
2024/03/30 13:28:58;;;;;;;43.07;15.97;;;;;;;;;;5107166;28;20445;-69
2024/03/30 13:31:26;;;;;;;49.53;14.73;;;;;;;;;;5103757;28;20488;-69
2024/03/30 13:33:53;;;;;;;51.77;16.20;;;;;;;;;;5095390;28;20442;-69
2024/03/30 13:36:20;;;;;;;42.73;15.10;;;;;;;;;;5094089;28;20447;-70
2024/03/30 13:38:46;;;;;;;48.40;14.63;;;;;;;;;;5105804;28;20485;-69
2024/03/30 13:41:13;;;;;;;49.17;16.70;;;;;;;;;;5102724;28;20443;-69
2024/03/30 13:43:40;;;;;;;37.90;13.93;;;;;;;;;;5101261;28;20443;-70
2024/03/30 13:46:07;;;;;;;46.03;14.80;;;;;;;;;;5099591;28;20526;-70
2024/03/30 13:48:34;;;;;;;40.47;13.63;;;;;;;;;;5106168;28;20434;-70
2024/03/30 13:51:02;;;;;;;45.70;15.90;;;;;;;;;;5097169;28;20525;-70
2024/03/30 13:53:29;;;;;;;44.03;16.40;;;;;;;;;;5095793;28;20474;-70
2024/03/30 13:55:56;;;;;;;41.93;16.03;;;;;;;;;;5093852;28;20547;-70
2024/03/30 13:58:25;;;;;;;48.33;16.17;;;;;;;;;;5094893;28;20483;-70
2024/03/30 14:00:52;;;;;;;44.67;15.67;;;;;;;;;;5094665;28;20450;-69
2024/03/30 14:03:20;;;;;;;48.90;13.50;;;;;;;;;;5101148;28;20487;-70
2024/03/30 14:05:48;;;;;;;48.70;14.77;;;;;;;;;;5103629;28;20473;-69
2024/03/30 14:08:15;;;;;;;41.63;12.97;;;;;;;;;;5109341;28;20902;-70
2024/03/30 14:10:42;;;;;;;41.00;15.03;;;;;;;;;;5101938;28;20463;-70
2024/03/30 14:13:08;;;;;;;43.67;13.87;;;;;;;;;;5099281;28;20450;-70
2024/03/30 14:15:36;;;;;;;43.73;14.57;;;;;;;;;;5096429;28;20462;-73
2024/03/30 14:18:02;;;;;;;39.83;16.53;;;;;;;;;;5101213;28;20479;-73
2024/03/30 14:20:29;;;;;;;43.13;14.53;;;;;;;;;;5098427;28;20478;-72
2024/03/30 14:22:55;;;;;;;40.33;13.83;;;;;;;;;;5094003;28;20446;-72
2024/03/30 14:25:24;;;;;;;51.60;15.03;;;;;;;;;;5098359;28;20477;-73
2024/03/30 14:27:50;;;;;;;42.10;15.23;;;;;;;;;;5101828;28;20473;-73
2024/03/30 14:30:17;;;;;;;31.60;11.80;;;;;;;;;;5096023;28;20447;-72
2024/03/30 14:32:44;;;;;;;48.07;15.60;;;;;;;;;;5103928;28;20947;-72
2024/03/30 14:35:11;;;;;;;38.30;13.67;;;;;;;;;;5103253;28;21065;-72
2024/03/30 14:37:37;;;;;;;42.60;14.03;;;;;;;;;;5101164;28;20565;-72